sensor_id;sensor_type;location;lat;lon;timestamp;P1;durP1;ratioP1;P2;durP2;ratioP2
65477;SDS011;53678;39.642;22.430;2023-08-12T00:00:30;7.65;;;3.17;;
65477;SDS011;53678;39.642;22.430;2023-08-12T00:02:57;6.38;;;3.05;;
65477;SDS011;53678;39.642;22.430;2023-08-12T00:05:23;3.95;;;2.70;;
65477;SDS011;53678;39.642;22.430;2023-08-12T00:07:49;3.90;;;2.75;;
65477;SDS011;53678;39.642;22.430;2023-08-12T00:10:15;5.07;;;2.67;;
65477;SDS011;53678;39.642;22.430;2023-08-12T00:12:41;3.58;;;3.03;;
65477;SDS011;53678;39.642;22.430;2023-08-12T00:15:07;3.60;;;2.78;;
65477;SDS011;53678;39.642;22.430;2023-08-12T00:17:34;4.35;;;3.00;;
65477;SDS011;53678;39.642;22.430;2023-08-12T00:20:02;4.22;;;2.95;;
65477;SDS011;53678;39.642;22.430;2023-08-12T00:22:32;4.18;;;2.97;;
65477;SDS011;53678;39.642;22.430;2023-08-12T00:24:57;5.63;;;2.92;;
65477;SDS011;53678;39.642;22.430;2023-08-12T00:27:23;5.30;;;2.97;;
65477;SDS011;53678;39.642;22.430;2023-08-12T00:29:48;6.55;;;3.35;;
65477;SDS011;53678;39.642;22.430;2023-08-12T00:32:14;4.95;;;2.72;;
65477;SDS011;53678;39.642;22.430;2023-08-12T00:34:40;5.80;;;3.40;;
65477;SDS011;53678;39.642;22.430;2023-08-12T00:37:06;4.65;;;2.88;;
65477;SDS011;53678;39.642;22.430;2023-08-12T00:39:31;3.42;;;2.60;;
65477;SDS011;53678;39.642;22.430;2023-08-12T00:41:57;4.97;;;3.03;;
65477;SDS011;53678;39.642;22.430;2023-08-12T00:44:22;6.13;;;2.80;;
65477;SDS011;53678;39.642;22.430;2023-08-12T00:46:48;3.47;;;2.80;;
65477;SDS011;53678;39.642;22.430;2023-08-12T00:49:15;5.72;;;2.92;;
65477;SDS011;53678;39.642;22.430;2023-08-12T00:51:42;6.07;;;2.92;;
65477;SDS011;53678;39.642;22.430;2023-08-12T00:54:13;6.28;;;3.17;;
65477;SDS011;53678;39.642;22.430;2023-08-12T00:56:40;7.03;;;2.92;;
65477;SDS011;53678;39.642;22.430;2023-08-12T00:59:07;5.35;;;3.00;;
65477;SDS011;53678;39.642;22.430;2023-08-12T01:01:34;5.43;;;2.90;;
65477;SDS011;53678;39.642;22.430;2023-08-12T01:04:01;5.80;;;2.90;;
65477;SDS011;53678;39.642;22.430;2023-08-12T01:06:29;5.38;;;3.10;;
65477;SDS011;53678;39.642;22.430;2023-08-12T01:08:55;3.35;;;2.85;;
65477;SDS011;53678;39.642;22.430;2023-08-12T01:11:27;6.60;;;3.08;;
65477;SDS011;53678;39.642;22.430;2023-08-12T01:14:12;5.93;;;3.60;;
65477;SDS011;53678;39.642;22.430;2023-08-12T01:16:39;5.47;;;3.00;;
65477;SDS011;53678;39.642;22.430;2023-08-12T01:19:09;3.83;;;2.85;;
65477;SDS011;53678;39.642;22.430;2023-08-12T01:21:41;4.15;;;2.80;;
65477;SDS011;53678;39.642;22.430;2023-08-12T01:24:09;3.40;;;2.65;;
65477;SDS011;53678;39.642;22.430;2023-08-12T01:26:35;6.18;;;2.80;;
65477;SDS011;53678;39.642;22.430;2023-08-12T01:29:01;5.80;;;3.53;;
65477;SDS011;53678;39.642;22.430;2023-08-12T01:31:34;4.32;;;3.25;;
65477;SDS011;53678;39.642;22.430;2023-08-12T01:34:16;3.80;;;2.90;;
65477;SDS011;53678;39.642;22.430;2023-08-12T01:37:14;5.07;;;2.97;;
65477;SDS011;53678;39.642;22.430;2023-08-12T01:39:48;3.85;;;3.17;;
65477;SDS011;53678;39.642;22.430;2023-08-12T01:42:15;6.55;;;3.13;;
65477;SDS011;53678;39.642;22.430;2023-08-12T01:44:43;4.60;;;3.20;;
65477;SDS011;53678;39.642;22.430;2023-08-12T01:47:09;4.00;;;3.20;;
65477;SDS011;53678;39.642;22.430;2023-08-12T01:49:36;5.88;;;3.20;;
65477;SDS011;53678;39.642;22.430;2023-08-12T01:52:02;3.60;;;3.00;;
65477;SDS011;53678;39.642;22.430;2023-08-12T01:54:28;10.27;;;4.00;;
65477;SDS011;53678;39.642;22.430;2023-08-12T01:57:04;7.72;;;3.67;;
65477;SDS011;53678;39.642;22.430;2023-08-12T01:59:34;7.53;;;4.00;;
65477;SDS011;53678;39.642;22.430;2023-08-12T02:02:00;9.02;;;5.13;;
65477;SDS011;53678;39.642;22.430;2023-08-12T02:04:26;4.93;;;3.83;;
65477;SDS011;53678;39.642;22.430;2023-08-12T02:06:52;3.95;;;3.20;;
65477;SDS011;53678;39.642;22.430;2023-08-12T02:09:19;5.10;;;3.13;;
65477;SDS011;53678;39.642;22.430;2023-08-12T02:11:45;4.68;;;3.40;;
65477;SDS011;53678;39.642;22.430;2023-08-12T02:14:10;6.43;;;3.50;;
65477;SDS011;53678;39.642;22.430;2023-08-12T02:16:37;5.03;;;2.92;;
65477;SDS011;53678;39.642;22.430;2023-08-12T02:19:03;6.38;;;3.40;;
65477;SDS011;53678;39.642;22.430;2023-08-12T02:21:28;5.72;;;3.30;;
65477;SDS011;53678;39.642;22.430;2023-08-12T02:23:54;4.65;;;3.15;;
65477;SDS011;53678;39.642;22.430;2023-08-12T02:26:20;4.00;;;3.17;;
65477;SDS011;53678;39.642;22.430;2023-08-12T02:28:47;4.22;;;3.25;;
65477;SDS011;53678;39.642;22.430;2023-08-12T02:31:15;5.95;;;3.60;;
65477;SDS011;53678;39.642;22.430;2023-08-12T02:33:41;4.35;;;3.47;;
65477;SDS011;53678;39.642;22.430;2023-08-12T02:36:07;5.75;;;3.28;;
65477;SDS011;53678;39.642;22.430;2023-08-12T02:38:33;5.30;;;3.17;;
65477;SDS011;53678;39.642;22.430;2023-08-12T02:40:59;8.07;;;3.72;;
65477;SDS011;53678;39.642;22.430;2023-08-12T02:43:25;6.75;;;3.60;;
65477;SDS011;53678;39.642;22.430;2023-08-12T02:45:51;4.85;;;3.50;;
65477;SDS011;53678;39.642;22.430;2023-08-12T02:48:17;4.63;;;3.50;;
65477;SDS011;53678;39.642;22.430;2023-08-12T02:50:43;6.32;;;3.45;;
65477;SDS011;53678;39.642;22.430;2023-08-12T02:53:09;4.43;;;3.60;;
65477;SDS011;53678;39.642;22.430;2023-08-12T02:55:35;5.65;;;3.83;;
65477;SDS011;53678;39.642;22.430;2023-08-12T02:58:01;4.47;;;3.53;;
65477;SDS011;53678;39.642;22.430;2023-08-12T03:00:28;5.65;;;3.95;;
65477;SDS011;53678;39.642;22.430;2023-08-12T03:02:54;3.85;;;3.45;;
65477;SDS011;53678;39.642;22.430;2023-08-12T03:05:20;4.80;;;3.60;;
65477;SDS011;53678;39.642;22.430;2023-08-12T03:07:47;6.28;;;3.65;;
65477;SDS011;53678;39.642;22.430;2023-08-12T03:10:13;4.10;;;3.63;;
65477;SDS011;53678;39.642;22.430;2023-08-12T03:12:39;4.90;;;3.40;;
65477;SDS011;53678;39.642;22.430;2023-08-12T03:15:05;4.95;;;3.40;;
65477;SDS011;53678;39.642;22.430;2023-08-12T03:17:32;5.38;;;3.33;;
65477;SDS011;53678;39.642;22.430;2023-08-12T03:19:58;4.20;;;3.30;;
65477;SDS011;53678;39.642;22.430;2023-08-12T03:22:31;5.93;;;3.35;;
65477;SDS011;53678;39.642;22.430;2023-08-12T03:24:57;7.30;;;3.53;;
65477;SDS011;53678;39.642;22.430;2023-08-12T03:27:23;6.70;;;3.55;;
65477;SDS011;53678;39.642;22.430;2023-08-12T03:29:50;4.93;;;3.40;;
65477;SDS011;53678;39.642;22.430;2023-08-12T03:32:16;4.13;;;3.47;;
65477;SDS011;53678;39.642;22.430;2023-08-12T03:34:42;4.15;;;3.55;;
65477;SDS011;53678;39.642;22.430;2023-08-12T03:37:09;4.10;;;3.13;;
65477;SDS011;53678;39.642;22.430;2023-08-12T03:39:35;5.78;;;3.58;;
65477;SDS011;53678;39.642;22.430;2023-08-12T03:42:01;6.45;;;3.80;;
65477;SDS011;53678;39.642;22.430;2023-08-12T03:44:28;5.00;;;3.67;;
65477;SDS011;53678;39.642;22.430;2023-08-12T03:46:55;5.07;;;3.58;;
65477;SDS011;53678;39.642;22.430;2023-08-12T03:49:20;4.45;;;3.33;;
65477;SDS011;53678;39.642;22.430;2023-08-12T03:51:46;7.50;;;3.75;;
65477;SDS011;53678;39.642;22.430;2023-08-12T03:54:12;5.72;;;3.67;;
65477;SDS011;53678;39.642;22.430;2023-08-12T03:56:39;7.05;;;3.75;;
65477;SDS011;53678;39.642;22.430;2023-08-12T03:59:04;6.57;;;3.40;;
65477;SDS011;53678;39.642;22.430;2023-08-12T04:01:30;9.75;;;4.03;;
65477;SDS011;53678;39.642;22.430;2023-08-12T04:03:56;6.88;;;3.42;;
65477;SDS011;53678;39.642;22.430;2023-08-12T04:06:22;6.25;;;3.58;;
65477;SDS011;53678;39.642;22.430;2023-08-12T04:08:47;9.43;;;3.28;;
65477;SDS011;53678;39.642;22.430;2023-08-12T04:11:13;4.65;;;3.15;;
65477;SDS011;53678;39.642;22.430;2023-08-12T04:13:40;5.55;;;3.53;;
65477;SDS011;53678;39.642;22.430;2023-08-12T04:16:05;4.65;;;3.72;;
65477;SDS011;53678;39.642;22.430;2023-08-12T04:18:31;5.82;;;3.08;;
65477;SDS011;53678;39.642;22.430;2023-08-12T04:20:58;6.10;;;3.13;;
65477;SDS011;53678;39.642;22.430;2023-08-12T04:23:24;7.35;;;4.00;;
65477;SDS011;53678;39.642;22.430;2023-08-12T04:25:50;6.03;;;3.30;;
65477;SDS011;53678;39.642;22.430;2023-08-12T04:28:21;4.57;;;3.30;;
65477;SDS011;53678;39.642;22.430;2023-08-12T04:30:48;5.53;;;3.22;;
65477;SDS011;53678;39.642;22.430;2023-08-12T04:33:16;6.38;;;2.88;;
65477;SDS011;53678;39.642;22.430;2023-08-12T04:35:42;7.93;;;3.53;;
65477;SDS011;53678;39.642;22.430;2023-08-12T04:38:10;4.75;;;2.80;;
65477;SDS011;53678;39.642;22.430;2023-08-12T04:40:40;5.97;;;3.47;;
65477;SDS011;53678;39.642;22.430;2023-08-12T04:43:11;4.03;;;2.70;;
65477;SDS011;53678;39.642;22.430;2023-08-12T04:45:39;4.88;;;2.90;;
65477;SDS011;53678;39.642;22.430;2023-08-12T04:48:11;5.40;;;3.38;;
65477;SDS011;53678;39.642;22.430;2023-08-12T04:50:37;8.73;;;3.70;;
65477;SDS011;53678;39.642;22.430;2023-08-12T04:53:04;5.47;;;3.33;;
65477;SDS011;53678;39.642;22.430;2023-08-12T04:55:30;4.88;;;3.22;;
65477;SDS011;53678;39.642;22.430;2023-08-12T04:57:58;10.63;;;3.53;;
65477;SDS011;53678;39.642;22.430;2023-08-12T05:00:24;10.68;;;3.08;;
65477;SDS011;53678;39.642;22.430;2023-08-12T05:02:51;8.13;;;4.93;;
65477;SDS011;53678;39.642;22.430;2023-08-12T05:05:16;5.30;;;3.47;;
65477;SDS011;53678;39.642;22.430;2023-08-12T05:07:42;5.68;;;2.95;;
65477;SDS011;53678;39.642;22.430;2023-08-12T05:10:11;3.65;;;3.22;;
65477;SDS011;53678;39.642;22.430;2023-08-12T05:12:36;8.30;;;3.38;;
65477;SDS011;53678;39.642;22.430;2023-08-12T05:15:02;6.78;;;2.95;;
65477;SDS011;53678;39.642;22.430;2023-08-12T05:17:28;7.82;;;3.50;;
65477;SDS011;53678;39.642;22.430;2023-08-12T05:19:55;9.48;;;3.65;;
65477;SDS011;53678;39.642;22.430;2023-08-12T05:22:22;5.68;;;3.42;;
65477;SDS011;53678;39.642;22.430;2023-08-12T05:24:48;5.28;;;3.10;;
65477;SDS011;53678;39.642;22.430;2023-08-12T05:27:13;6.63;;;3.40;;
65477;SDS011;53678;39.642;22.430;2023-08-12T05:29:39;4.97;;;3.00;;
65477;SDS011;53678;39.642;22.430;2023-08-12T05:32:06;8.18;;;3.65;;
65477;SDS011;53678;39.642;22.430;2023-08-12T05:34:32;5.18;;;3.20;;
65477;SDS011;53678;39.642;22.430;2023-08-12T05:36:58;5.00;;;2.88;;
65477;SDS011;53678;39.642;22.430;2023-08-12T05:39:23;8.23;;;2.97;;
65477;SDS011;53678;39.642;22.430;2023-08-12T05:41:49;6.35;;;3.00;;
65477;SDS011;53678;39.642;22.430;2023-08-12T05:44:16;14.05;;;3.47;;
65477;SDS011;53678;39.642;22.430;2023-08-12T05:46:41;7.47;;;3.13;;
65477;SDS011;53678;39.642;22.430;2023-08-12T05:49:07;9.63;;;2.97;;
65477;SDS011;53678;39.642;22.430;2023-08-12T05:51:33;10.73;;;3.60;;
65477;SDS011;53678;39.642;22.430;2023-08-12T05:53:58;11.45;;;3.47;;
65477;SDS011;53678;39.642;22.430;2023-08-12T05:56:24;6.07;;;3.33;;
65477;SDS011;53678;39.642;22.430;2023-08-12T05:58:50;6.47;;;3.15;;
65477;SDS011;53678;39.642;22.430;2023-08-12T06:01:15;5.18;;;2.90;;
65477;SDS011;53678;39.642;22.430;2023-08-12T06:03:41;11.48;;;2.95;;
65477;SDS011;53678;39.642;22.430;2023-08-12T06:06:07;4.90;;;2.70;;
65477;SDS011;53678;39.642;22.430;2023-08-12T06:08:32;6.97;;;3.38;;
65477;SDS011;53678;39.642;22.430;2023-08-12T06:10:58;6.35;;;3.10;;
65477;SDS011;53678;39.642;22.430;2023-08-12T06:13:24;4.75;;;2.67;;
65477;SDS011;53678;39.642;22.430;2023-08-12T06:15:49;7.20;;;2.97;;
65477;SDS011;53678;39.642;22.430;2023-08-12T06:18:15;6.18;;;2.55;;
65477;SDS011;53678;39.642;22.430;2023-08-12T06:20:41;4.63;;;2.50;;
65477;SDS011;53678;39.642;22.430;2023-08-12T06:23:06;5.57;;;2.33;;
65477;SDS011;53678;39.642;22.430;2023-08-12T06:25:32;9.10;;;2.50;;
65477;SDS011;53678;39.642;22.430;2023-08-12T06:27:58;3.38;;;2.40;;
65477;SDS011;53678;39.642;22.430;2023-08-12T06:30:23;5.60;;;2.30;;
65477;SDS011;53678;39.642;22.430;2023-08-12T06:32:49;4.63;;;2.53;;
65477;SDS011;53678;39.642;22.430;2023-08-12T06:35:15;4.78;;;2.55;;
65477;SDS011;53678;39.642;22.430;2023-08-12T06:37:40;6.50;;;2.55;;
65477;SDS011;53678;39.642;22.430;2023-08-12T06:40:07;3.38;;;2.55;;
65477;SDS011;53678;39.642;22.430;2023-08-12T06:42:33;9.50;;;2.90;;
65477;SDS011;53678;39.642;22.430;2023-08-12T06:44:59;6.55;;;2.70;;
65477;SDS011;53678;39.642;22.430;2023-08-12T06:47:25;5.15;;;2.47;;
65477;SDS011;53678;39.642;22.430;2023-08-12T06:49:52;6.13;;;2.22;;
65477;SDS011;53678;39.642;22.430;2023-08-12T06:52:18;3.42;;;2.38;;
65477;SDS011;53678;39.642;22.430;2023-08-12T06:54:44;4.43;;;2.60;;
65477;SDS011;53678;39.642;22.430;2023-08-12T06:57:10;4.82;;;2.50;;
65477;SDS011;53678;39.642;22.430;2023-08-12T06:59:37;4.78;;;2.40;;
65477;SDS011;53678;39.642;22.430;2023-08-12T07:02:03;4.78;;;2.15;;
65477;SDS011;53678;39.642;22.430;2023-08-12T07:04:29;5.35;;;2.47;;
65477;SDS011;53678;39.642;22.430;2023-08-12T07:06:55;5.45;;;2.65;;
65477;SDS011;53678;39.642;22.430;2023-08-12T07:09:21;2.92;;;2.22;;
65477;SDS011;53678;39.642;22.430;2023-08-12T07:11:48;4.72;;;2.90;;
65477;SDS011;53678;39.642;22.430;2023-08-12T07:14:14;5.03;;;2.28;;
65477;SDS011;53678;39.642;22.430;2023-08-12T07:16:39;4.60;;;2.20;;
65477;SDS011;53678;39.642;22.430;2023-08-12T07:19:05;4.68;;;2.03;;
65477;SDS011;53678;39.642;22.430;2023-08-12T07:21:31;5.03;;;2.28;;
65477;SDS011;53678;39.642;22.430;2023-08-12T07:23:56;2.63;;;1.95;;
65477;SDS011;53678;39.642;22.430;2023-08-12T07:26:22;3.60;;;1.90;;
65477;SDS011;53678;39.642;22.430;2023-08-12T07:28:48;2.58;;;1.92;;
65477;SDS011;53678;39.642;22.430;2023-08-12T07:31:13;3.08;;;1.92;;
65477;SDS011;53678;39.642;22.430;2023-08-12T07:33:39;3.50;;;1.90;;
65477;SDS011;53678;39.642;22.430;2023-08-12T07:36:05;4.20;;;2.25;;
65477;SDS011;53678;39.642;22.430;2023-08-12T07:38:30;2.97;;;1.80;;
65477;SDS011;53678;39.642;22.430;2023-08-12T07:40:56;3.42;;;1.80;;
65477;SDS011;53678;39.642;22.430;2023-08-12T07:43:22;5.85;;;2.30;;
65477;SDS011;53678;39.642;22.430;2023-08-12T07:45:54;2.70;;;1.95;;
65477;SDS011;53678;39.642;22.430;2023-08-12T07:48:20;3.67;;;2.03;;
65477;SDS011;53678;39.642;22.430;2023-08-12T07:50:46;3.58;;;1.95;;
65477;SDS011;53678;39.642;22.430;2023-08-12T07:53:15;3.90;;;2.10;;
65477;SDS011;53678;39.642;22.430;2023-08-12T07:55:41;3.45;;;1.95;;
65477;SDS011;53678;39.642;22.430;2023-08-12T07:58:07;4.10;;;2.30;;
65477;SDS011;53678;39.642;22.430;2023-08-12T08:00:33;3.58;;;1.92;;
65477;SDS011;53678;39.642;22.430;2023-08-12T08:02:59;3.78;;;2.03;;
65477;SDS011;53678;39.642;22.430;2023-08-12T08:05:25;4.75;;;2.17;;
65477;SDS011;53678;39.642;22.430;2023-08-12T08:07:50;5.05;;;2.05;;
65477;SDS011;53678;39.642;22.430;2023-08-12T08:10:16;4.15;;;2.05;;
65477;SDS011;53678;39.642;22.430;2023-08-12T08:12:42;3.15;;;2.00;;
65477;SDS011;53678;39.642;22.430;2023-08-12T08:15:08;3.08;;;2.20;;
65477;SDS011;53678;39.642;22.430;2023-08-12T08:17:34;3.03;;;2.08;;
65477;SDS011;53678;39.642;22.430;2023-08-12T08:19:59;4.05;;;2.10;;
65477;SDS011;53678;39.642;22.430;2023-08-12T08:22:25;3.20;;;2.00;;
65477;SDS011;53678;39.642;22.430;2023-08-12T08:24:51;4.32;;;2.13;;
65477;SDS011;53678;39.642;22.430;2023-08-12T08:27:16;5.47;;;2.25;;
65477;SDS011;53678;39.642;22.430;2023-08-12T08:29:42;3.30;;;2.15;;
65477;SDS011;53678;39.642;22.430;2023-08-12T08:32:08;3.10;;;1.90;;
65477;SDS011;53678;39.642;22.430;2023-08-12T08:34:34;3.17;;;2.00;;
65477;SDS011;53678;39.642;22.430;2023-08-12T08:36:59;3.05;;;2.15;;
65477;SDS011;53678;39.642;22.430;2023-08-12T08:39:25;4.20;;;2.03;;
65477;SDS011;53678;39.642;22.430;2023-08-12T08:41:51;3.95;;;2.03;;
65477;SDS011;53678;39.642;22.430;2023-08-12T08:44:19;4.30;;;2.33;;
65477;SDS011;53678;39.642;22.430;2023-08-12T08:46:49;3.30;;;1.98;;
65477;SDS011;53678;39.642;22.430;2023-08-12T08:49:17;3.72;;;2.10;;
65477;SDS011;53678;39.642;22.430;2023-08-12T08:51:43;2.92;;;2.20;;
65477;SDS011;53678;39.642;22.430;2023-08-12T08:54:12;4.70;;;1.67;;
65477;SDS011;53678;39.642;22.430;2023-08-12T08:56:38;3.92;;;1.85;;
65477;SDS011;53678;39.642;22.430;2023-08-12T08:59:04;5.18;;;2.30;;
65477;SDS011;53678;39.642;22.430;2023-08-12T09:01:30;3.15;;;1.60;;
65477;SDS011;53678;39.642;22.430;2023-08-12T09:03:57;3.53;;;1.95;;
65477;SDS011;53678;39.642;22.430;2023-08-12T09:06:26;3.95;;;1.90;;
65477;SDS011;53678;39.642;22.430;2023-08-12T09:08:55;2.88;;;1.73;;
65477;SDS011;53678;39.642;22.430;2023-08-12T09:11:21;4.25;;;1.40;;
65477;SDS011;53678;39.642;22.430;2023-08-12T09:13:47;3.20;;;2.15;;
65477;SDS011;53678;39.642;22.430;2023-08-12T09:16:13;3.38;;;1.70;;
65477;SDS011;53678;39.642;22.430;2023-08-12T09:18:40;2.33;;;1.90;;
65477;SDS011;53678;39.642;22.430;2023-08-12T09:21:08;3.88;;;1.85;;
65477;SDS011;53678;39.642;22.430;2023-08-12T09:23:38;2.65;;;1.80;;
65477;SDS011;53678;39.642;22.430;2023-08-12T09:26:15;3.30;;;1.88;;
65477;SDS011;53678;39.642;22.430;2023-08-12T09:28:42;3.00;;;2.00;;
65477;SDS011;53678;39.642;22.430;2023-08-12T09:31:08;2.30;;;1.80;;
65477;SDS011;53678;39.642;22.430;2023-08-12T09:33:46;2.80;;;2.05;;
65477;SDS011;53678;39.642;22.430;2023-08-12T09:36:12;2.72;;;1.67;;
65477;SDS011;53678;39.642;22.430;2023-08-12T09:38:37;4.15;;;2.05;;
65477;SDS011;53678;39.642;22.430;2023-08-12T09:41:03;5.25;;;2.28;;
65477;SDS011;53678;39.642;22.430;2023-08-12T09:43:30;2.67;;;1.80;;
65477;SDS011;53678;39.642;22.430;2023-08-12T09:45:57;3.47;;;1.80;;
65477;SDS011;53678;39.642;22.430;2023-08-12T09:48:25;3.78;;;2.90;;
65477;SDS011;53678;39.642;22.430;2023-08-12T09:50:52;5.22;;;2.22;;
65477;SDS011;53678;39.642;22.430;2023-08-12T09:53:19;3.20;;;1.95;;
65477;SDS011;53678;39.642;22.430;2023-08-12T09:55:47;2.95;;;2.10;;
65477;SDS011;53678;39.642;22.430;2023-08-12T09:58:15;3.83;;;1.70;;
65477;SDS011;53678;39.642;22.430;2023-08-12T10:00:43;4.53;;;1.85;;
65477;SDS011;53678;39.642;22.430;2023-08-12T10:03:11;3.83;;;2.20;;
65477;SDS011;53678;39.642;22.430;2023-08-12T10:05:39;4.97;;;1.92;;
65477;SDS011;53678;39.642;22.430;2023-08-12T10:08:05;3.65;;;1.70;;
65477;SDS011;53678;39.642;22.430;2023-08-12T10:10:34;4.53;;;2.42;;
65477;SDS011;53678;39.642;22.430;2023-08-12T10:13:01;2.65;;;1.80;;
65477;SDS011;53678;39.642;22.430;2023-08-12T10:15:26;3.03;;;1.90;;
65477;SDS011;53678;39.642;22.430;2023-08-12T10:17:52;3.10;;;1.98;;
65477;SDS011;53678;39.642;22.430;2023-08-12T10:20:22;3.67;;;2.13;;
65477;SDS011;53678;39.642;22.430;2023-08-12T10:22:49;3.20;;;1.95;;
65477;SDS011;53678;39.642;22.430;2023-08-12T10:25:17;4.03;;;1.80;;
65477;SDS011;53678;39.642;22.430;2023-08-12T10:27:47;4.28;;;2.10;;
65477;SDS011;53678;39.642;22.430;2023-08-12T10:30:13;4.95;;;1.58;;
65477;SDS011;53678;39.642;22.430;2023-08-12T10:32:40;2.58;;;1.77;;
65477;SDS011;53678;39.642;22.430;2023-08-12T10:35:06;2.85;;;1.92;;
65477;SDS011;53678;39.642;22.430;2023-08-12T10:37:34;3.15;;;2.20;;
65477;SDS011;53678;39.642;22.430;2023-08-12T10:40:03;3.05;;;1.55;;
